sensor_id;sensor_type;location;lat;lon;timestamp;temperature;humidity
8178;DHT22;4130;48.740;9.132;2023-07-13T00:02:22;18.70;95.30
8178;DHT22;4130;48.740;9.132;2023-07-13T00:04:49;18.60;95.30
8178;DHT22;4130;48.740;9.132;2023-07-13T00:07:19;18.60;95.00
8178;DHT22;4130;48.740;9.132;2023-07-13T00:09:46;18.60;95.30
8178;DHT22;4130;48.740;9.132;2023-07-13T00:12:24;18.50;95.00
8178;DHT22;4130;48.740;9.132;2023-07-13T00:14:51;18.50;95.40
8178;DHT22;4130;48.740;9.132;2023-07-13T00:17:18;18.40;95.50
8178;DHT22;4130;48.740;9.132;2023-07-13T00:19:45;18.40;95.00
8178;DHT22;4130;48.740;9.132;2023-07-13T00:22:12;18.40;95.10
8178;DHT22;4130;48.740;9.132;2023-07-13T00:24:40;18.30;95.50
8178;DHT22;4130;48.740;9.132;2023-07-13T00:27:07;18.20;95.40
8178;DHT22;4130;48.740;9.132;2023-07-13T00:29:34;18.20;95.60
8178;DHT22;4130;48.740;9.132;2023-07-13T00:32:02;18.10;95.20
8178;DHT22;4130;48.740;9.132;2023-07-13T00:34:29;18.10;95.10
8178;DHT22;4130;48.740;9.132;2023-07-13T00:36:56;18.00;95.30
8178;DHT22;4130;48.740;9.132;2023-07-13T00:39:22;18.00;95.50
8178;DHT22;4130;48.740;9.132;2023-07-13T00:41:51;18.00;95.90
8178;DHT22;4130;48.740;9.132;2023-07-13T00:44:20;17.90;96.30
8178;DHT22;4130;48.740;9.132;2023-07-13T00:46:48;17.80;96.10
8178;DHT22;4130;48.740;9.132;2023-07-13T00:49:19;17.80;96.10
8178;DHT22;4130;48.740;9.132;2023-07-13T00:51:50;17.70;96.30
8178;DHT22;4130;48.740;9.132;2023-07-13T00:54:22;17.70;96.80
8178;DHT22;4130;48.740;9.132;2023-07-13T00:56:54;17.60;96.40
8178;DHT22;4130;48.740;9.132;2023-07-13T00:59:22;17.60;96.10
8178;DHT22;4130;48.740;9.132;2023-07-13T01:01:49;17.70;96.50
8178;DHT22;4130;48.740;9.132;2023-07-13T01:04:17;17.80;96.00
8178;DHT22;4130;48.740;9.132;2023-07-13T01:06:44;17.70;96.10
8178;DHT22;4130;48.740;9.132;2023-07-13T01:09:14;17.70;96.20
8178;DHT22;4130;48.740;9.132;2023-07-13T01:11:42;17.70;96.10
8178;DHT22;4130;48.740;9.132;2023-07-13T01:14:11;17.70;96.30
8178;DHT22;4130;48.740;9.132;2023-07-13T01:16:40;17.70;96.50
8178;DHT22;4130;48.740;9.132;2023-07-13T01:19:15;17.60;96.60
8178;DHT22;4130;48.740;9.132;2023-07-13T01:21:50;17.60;96.60
8178;DHT22;4130;48.740;9.132;2023-07-13T01:24:17;17.60;96.50
8178;DHT22;4130;48.740;9.132;2023-07-13T01:26:44;17.60;96.40
8178;DHT22;4130;48.740;9.132;2023-07-13T01:29:10;17.50;96.80
8178;DHT22;4130;48.740;9.132;2023-07-13T01:31:37;17.40;96.90
8178;DHT22;4130;48.740;9.132;2023-07-13T01:34:04;17.30;97.20
8178;DHT22;4130;48.740;9.132;2023-07-13T01:36:31;17.30;97.20
8178;DHT22;4130;48.740;9.132;2023-07-13T01:39:00;17.20;97.20
8178;DHT22;4130;48.740;9.132;2023-07-13T01:41:26;17.20;97.30
8178;DHT22;4130;48.740;9.132;2023-07-13T01:43:53;17.10;97.40
8178;DHT22;4130;48.740;9.132;2023-07-13T01:46:20;17.00;97.60
8178;DHT22;4130;48.740;9.132;2023-07-13T01:48:47;17.00;97.50
8178;DHT22;4130;48.740;9.132;2023-07-13T01:51:13;16.90;98.00
8178;DHT22;4130;48.740;9.132;2023-07-13T01:53:40;16.90;98.30
8178;DHT22;4130;48.740;9.132;2023-07-13T01:56:08;16.70;98.20
8178;DHT22;4130;48.740;9.132;2023-07-13T01:58:36;16.60;98.20
8178;DHT22;4130;48.740;9.132;2023-07-13T02:01:03;16.60;98.70
8178;DHT22;4130;48.740;9.132;2023-07-13T02:03:29;16.60;99.40
8178;DHT22;4130;48.740;9.132;2023-07-13T02:05:56;16.50;99.50
8178;DHT22;4130;48.740;9.132;2023-07-13T02:08:23;16.50;99.90
8178;DHT22;4130;48.740;9.132;2023-07-13T02:10:49;16.50;99.90
8178;DHT22;4130;48.740;9.132;2023-07-13T02:13:18;16.50;99.80
8178;DHT22;4130;48.740;9.132;2023-07-13T02:15:49;16.60;99.40
8178;DHT22;4130;48.740;9.132;2023-07-13T02:18:16;16.30;99.90
8178;DHT22;4130;48.740;9.132;2023-07-13T02:20:43;16.20;99.90
8178;DHT22;4130;48.740;9.132;2023-07-13T02:23:10;16.20;99.90
8178;DHT22;4130;48.740;9.132;2023-07-13T02:25:36;16.10;99.90
8178;DHT22;4130;48.740;9.132;2023-07-13T02:28:03;16.10;99.90
8178;DHT22;4130;48.740;9.132;2023-07-13T02:30:31;16.00;99.90
8178;DHT22;4130;48.740;9.132;2023-07-13T02:32:58;16.00;99.90
8178;DHT22;4130;48.740;9.132;2023-07-13T02:35:25;16.00;99.90
8178;DHT22;4130;48.740;9.132;2023-07-13T02:37:52;15.90;99.90
8178;DHT22;4130;48.740;9.132;2023-07-13T02:40:19;16.00;99.90
8178;DHT22;4130;48.740;9.132;2023-07-13T02:42:45;15.80;99.90
8178;DHT22;4130;48.740;9.132;2023-07-13T02:45:12;15.80;99.90
8178;DHT22;4130;48.740;9.132;2023-07-13T02:47:41;15.70;99.90
8178;DHT22;4130;48.740;9.132;2023-07-13T02:50:09;15.70;99.90
8178;DHT22;4130;48.740;9.132;2023-07-13T02:52:36;15.70;99.90
8178;DHT22;4130;48.740;9.132;2023-07-13T02:55:02;15.60;99.90
8178;DHT22;4130;48.740;9.132;2023-07-13T02:57:29;15.60;99.90
8178;DHT22;4130;48.740;9.132;2023-07-13T02:59:58;15.50;99.90
8178;DHT22;4130;48.740;9.132;2023-07-13T03:02:25;15.50;99.90
8178;DHT22;4130;48.740;9.132;2023-07-13T03:04:55;15.50;99.90
8178;DHT22;4130;48.740;9.132;2023-07-13T03:07:21;15.50;99.90
8178;DHT22;4130;48.740;9.132;2023-07-13T03:09:48;15.40;99.90
8178;DHT22;4130;48.740;9.132;2023-07-13T03:12:15;15.60;99.90
8178;DHT22;4130;48.740;9.132;2023-07-13T03:14:42;15.40;99.90
8178;DHT22;4130;48.740;9.132;2023-07-13T03:17:08;15.40;99.90
8178;DHT22;4130;48.740;9.132;2023-07-13T03:19:35;15.40;99.90
8178;DHT22;4130;48.740;9.132;2023-07-13T03:22:04;15.40;99.90
8178;DHT22;4130;48.740;9.132;2023-07-13T03:24:32;15.40;99.90
8178;DHT22;4130;48.740;9.132;2023-07-13T03:27:00;15.50;99.90
8178;DHT22;4130;48.740;9.132;2023-07-13T03:29:27;15.50;99.90
8178;DHT22;4130;48.740;9.132;2023-07-13T03:31:54;15.60;99.90
8178;DHT22;4130;48.740;9.132;2023-07-13T03:34:20;15.60;99.90
8178;DHT22;4130;48.740;9.132;2023-07-13T03:36:47;15.70;99.90
8178;DHT22;4130;48.740;9.132;2023-07-13T03:39:15;15.80;99.90
8178;DHT22;4130;48.740;9.132;2023-07-13T03:41:42;15.80;99.90
8178;DHT22;4130;48.740;9.132;2023-07-13T03:44:09;15.80;99.90
8178;DHT22;4130;48.740;9.132;2023-07-13T03:46:36;15.90;99.90
8178;DHT22;4130;48.740;9.132;2023-07-13T03:49:04;15.90;99.90
8178;DHT22;4130;48.740;9.132;2023-07-13T03:51:31;15.90;99.90
8178;DHT22;4130;48.740;9.132;2023-07-13T03:53:57;15.90;99.90
8178;DHT22;4130;48.740;9.132;2023-07-13T03:56:25;15.90;99.90
8178;DHT22;4130;48.740;9.132;2023-07-13T03:58:53;16.00;99.90
8178;DHT22;4130;48.740;9.132;2023-07-13T04:01:21;16.00;99.90
8178;DHT22;4130;48.740;9.132;2023-07-13T04:03:49;16.00;99.90
8178;DHT22;4130;48.740;9.132;2023-07-13T04:06:17;16.10;99.90
8178;DHT22;4130;48.740;9.132;2023-07-13T04:08:48;16.20;99.90
8178;DHT22;4130;48.740;9.132;2023-07-13T04:11:17;16.20;99.90
8178;DHT22;4130;48.740;9.132;2023-07-13T04:13:45;16.20;99.90
8178;DHT22;4130;48.740;9.132;2023-07-13T04:16:12;16.20;99.90
8178;DHT22;4130;48.740;9.132;2023-07-13T04:18:38;16.20;99.90
8178;DHT22;4130;48.740;9.132;2023-07-13T04:21:07;16.20;99.90
8178;DHT22;4130;48.740;9.132;2023-07-13T04:23:34;16.30;99.90
8178;DHT22;4130;48.740;9.132;2023-07-13T04:26:00;16.30;99.90
8178;DHT22;4130;48.740;9.132;2023-07-13T04:28:27;16.40;99.90
8178;DHT22;4130;48.740;9.132;2023-07-13T04:30:55;16.40;99.90
8178;DHT22;4130;48.740;9.132;2023-07-13T04:33:22;16.50;99.90
8178;DHT22;4130;48.740;9.132;2023-07-13T04:35:49;16.50;99.90
8178;DHT22;4130;48.740;9.132;2023-07-13T04:38:22;16.40;99.90
8178;DHT22;4130;48.740;9.132;2023-07-13T04:40:50;16.50;99.90
8178;DHT22;4130;48.740;9.132;2023-07-13T04:43:17;16.40;99.90
8178;DHT22;4130;48.740;9.132;2023-07-13T04:45:44;16.50;99.90
8178;DHT22;4130;48.740;9.132;2023-07-13T04:48:12;16.40;99.90
8178;DHT22;4130;48.740;9.132;2023-07-13T04:50:39;16.30;99.90
8178;DHT22;4130;48.740;9.132;2023-07-13T04:53:06;16.30;99.90
8178;DHT22;4130;48.740;9.132;2023-07-13T04:55:33;16.30;99.90
8178;DHT22;4130;48.740;9.132;2023-07-13T04:58:00;16.20;99.90
8178;DHT22;4130;48.740;9.132;2023-07-13T05:00:28;16.20;99.90
8178;DHT22;4130;48.740;9.132;2023-07-13T05:02:56;16.20;99.90
8178;DHT22;4130;48.740;9.132;2023-07-13T05:05:26;16.20;99.90
8178;DHT22;4130;48.740;9.132;2023-07-13T05:07:53;16.30;99.90
8178;DHT22;4130;48.740;9.132;2023-07-13T05:10:20;16.30;99.90
8178;DHT22;4130;48.740;9.132;2023-07-13T05:12:47;16.40;99.90
8178;DHT22;4130;48.740;9.132;2023-07-13T05:15:14;16.50;99.90
8178;DHT22;4130;48.740;9.132;2023-07-13T05:17:41;16.60;99.90
8178;DHT22;4130;48.740;9.132;2023-07-13T05:20:09;16.70;99.90
8178;DHT22;4130;48.740;9.132;2023-07-13T05:22:37;16.80;99.90
8178;DHT22;4130;48.740;9.132;2023-07-13T05:25:05;16.90;99.90
8178;DHT22;4130;48.740;9.132;2023-07-13T05:27:32;17.00;99.90
8178;DHT22;4130;48.740;9.132;2023-07-13T05:29:59;17.20;99.90
8178;DHT22;4130;48.740;9.132;2023-07-13T05:32:25;17.20;99.90
8178;DHT22;4130;48.740;9.132;2023-07-13T05:34:52;17.30;99.90
8178;DHT22;4130;48.740;9.132;2023-07-13T05:37:19;17.30;99.90
8178;DHT22;4130;48.740;9.132;2023-07-13T05:39:47;17.40;99.90
8178;DHT22;4130;48.740;9.132;2023-07-13T05:42:14;17.50;99.90
8178;DHT22;4130;48.740;9.132;2023-07-13T05:44:41;17.60;99.90
8178;DHT22;4130;48.740;9.132;2023-07-13T05:47:08;17.60;99.90
8178;DHT22;4130;48.740;9.132;2023-07-13T05:49:35;17.70;99.90
8178;DHT22;4130;48.740;9.132;2023-07-13T05:52:01;17.70;99.90
8178;DHT22;4130;48.740;9.132;2023-07-13T05:54:28;17.70;99.90
8178;DHT22;4130;48.740;9.132;2023-07-13T05:56:56;17.80;99.90
8178;DHT22;4130;48.740;9.132;2023-07-13T05:59:23;17.80;99.90
8178;DHT22;4130;48.740;9.132;2023-07-13T06:01:50;17.80;99.70
8178;DHT22;4130;48.740;9.132;2023-07-13T06:04:18;17.90;99.60
8178;DHT22;4130;48.740;9.132;2023-07-13T06:06:45;17.90;99.50
8178;DHT22;4130;48.740;9.132;2023-07-13T06:09:12;17.90;98.40
8178;DHT22;4130;48.740;9.132;2023-07-13T06:11:39;17.90;98.40
8178;DHT22;4130;48.740;9.132;2023-07-13T06:14:08;17.90;97.20
8178;DHT22;4130;48.740;9.132;2023-07-13T06:16:34;17.90;96.20
8178;DHT22;4130;48.740;9.132;2023-07-13T06:19:01;17.90;95.40
8178;DHT22;4130;48.740;9.132;2023-07-13T06:21:28;17.90;95.20
8178;DHT22;4130;48.740;9.132;2023-07-13T06:23:55;17.90;96.20
8178;DHT22;4130;48.740;9.132;2023-07-13T06:26:21;17.80;95.80
8178;DHT22;4130;48.740;9.132;2023-07-13T06:28:48;17.70;95.10
8178;DHT22;4130;48.740;9.132;2023-07-13T06:31:16;17.70;95.40
8178;DHT22;4130;48.740;9.132;2023-07-13T06:33:44;17.80;94.30
8178;DHT22;4130;48.740;9.132;2023-07-13T06:36:10;17.80;94.40
8178;DHT22;4130;48.740;9.132;2023-07-13T06:38:38;17.80;94.60
8178;DHT22;4130;48.740;9.132;2023-07-13T06:41:06;17.90;94.80
8178;DHT22;4130;48.740;9.132;2023-07-13T06:43:33;18.00;94.70
8178;DHT22;4130;48.740;9.132;2023-07-13T06:46:00;18.30;93.80
8178;DHT22;4130;48.740;9.132;2023-07-13T06:48:28;18.60;94.10
8178;DHT22;4130;48.740;9.132;2023-07-13T06:50:55;18.80;93.90
8178;DHT22;4130;48.740;9.132;2023-07-13T06:53:22;19.10;93.60
8178;DHT22;4130;48.740;9.132;2023-07-13T06:55:49;19.20;91.60
8178;DHT22;4130;48.740;9.132;2023-07-13T06:58:18;19.20;91.50
8178;DHT22;4130;48.740;9.132;2023-07-13T07:00:45;19.30;92.20
8178;DHT22;4130;48.740;9.132;2023-07-13T07:03:12;19.30;91.20
8178;DHT22;4130;48.740;9.132;2023-07-13T07:05:40;19.40;91.30
8178;DHT22;4130;48.740;9.132;2023-07-13T07:08:07;19.20;91.20
8178;DHT22;4130;48.740;9.132;2023-07-13T07:10:35;19.60;91.30
8178;DHT22;4130;48.740;9.132;2023-07-13T07:13:02;20.00;90.40
8178;DHT22;4130;48.740;9.132;2023-07-13T07:15:29;20.30;88.90
8178;DHT22;4130;48.740;9.132;2023-07-13T07:17:56;20.60;90.20
8178;DHT22;4130;48.740;9.132;2023-07-13T07:20:23;20.90;89.30
8178;DHT22;4130;48.740;9.132;2023-07-13T07:22:51;21.30;90.00
8178;DHT22;4130;48.740;9.132;2023-07-13T07:25:18;21.60;90.50
8178;DHT22;4130;48.740;9.132;2023-07-13T07:27:45;22.10;88.30
8178;DHT22;4130;48.740;9.132;2023-07-13T07:30:12;22.30;86.70
8178;DHT22;4130;48.740;9.132;2023-07-13T07:32:39;22.30;85.70
8178;DHT22;4130;48.740;9.132;2023-07-13T07:35:07;22.20;85.90
8178;DHT22;4130;48.740;9.132;2023-07-13T07:37:34;22.20;83.70
8178;DHT22;4130;48.740;9.132;2023-07-13T07:40:03;22.10;83.40
8178;DHT22;4130;48.740;9.132;2023-07-13T07:42:29;22.10;83.00
8178;DHT22;4130;48.740;9.132;2023-07-13T07:44:56;22.10;83.10
8178;DHT22;4130;48.740;9.132;2023-07-13T07:47:23;22.10;82.70
8178;DHT22;4130;48.740;9.132;2023-07-13T07:49:50;22.30;84.00
8178;DHT22;4130;48.740;9.132;2023-07-13T07:52:18;22.40;82.50
8178;DHT22;4130;48.740;9.132;2023-07-13T07:54:44;22.60;82.30
8178;DHT22;4130;48.740;9.132;2023-07-13T07:57:12;22.80;82.80
8178;DHT22;4130;48.740;9.132;2023-07-13T07:59:39;23.20;83.10
8178;DHT22;4130;48.740;9.132;2023-07-13T08:02:08;23.40;81.50
8178;DHT22;4130;48.740;9.132;2023-07-13T08:04:35;23.60;80.30
8178;DHT22;4130;48.740;9.132;2023-07-13T08:07:02;23.40;79.40
8178;DHT22;4130;48.740;9.132;2023-07-13T08:09:29;23.40;81.00
8178;DHT22;4130;48.740;9.132;2023-07-13T08:11:55;23.60;81.20
8178;DHT22;4130;48.740;9.132;2023-07-13T08:14:24;23.70;81.00
8178;DHT22;4130;48.740;9.132;2023-07-13T08:16:50;23.70;80.70
8178;DHT22;4130;48.740;9.132;2023-07-13T08:19:17;23.70;80.00
8178;DHT22;4130;48.740;9.132;2023-07-13T08:21:44;23.60;80.10
8178;DHT22;4130;48.740;9.132;2023-07-13T08:24:13;23.70;80.00
8178;DHT22;4130;48.740;9.132;2023-07-13T08:26:40;23.50;78.80
8178;DHT22;4130;48.740;9.132;2023-07-13T08:29:07;23.50;78.90
8178;DHT22;4130;48.740;9.132;2023-07-13T08:31:35;23.80;79.30
8178;DHT22;4130;48.740;9.132;2023-07-13T08:34:02;24.30;78.70
8178;DHT22;4130;48.740;9.132;2023-07-13T08:36:29;24.80;78.60
8178;DHT22;4130;48.740;9.132;2023-07-13T08:38:56;25.20;78.60
8178;DHT22;4130;48.740;9.132;2023-07-13T08:41:23;25.20;77.60
8178;DHT22;4130;48.740;9.132;2023-07-13T08:43:52;25.90;78.30
8178;DHT22;4130;48.740;9.132;2023-07-13T08:46:24;26.70;76.50
8178;DHT22;4130;48.740;9.132;2023-07-13T08:48:56;26.80;75.30
8178;DHT22;4130;48.740;9.132;2023-07-13T08:51:29;27.30;75.40
8178;DHT22;4130;48.740;9.132;2023-07-13T08:54:00;27.50;74.60
8178;DHT22;4130;48.740;9.132;2023-07-13T08:56:29;27.40;74.30
8178;DHT22;4130;48.740;9.132;2023-07-13T08:58:58;27.90;74.10
8178;DHT22;4130;48.740;9.132;2023-07-13T09:01:31;28.10;73.10
8178;DHT22;4130;48.740;9.132;2023-07-13T09:04:05;27.80;72.50
8178;DHT22;4130;48.740;9.132;2023-07-13T09:06:47;28.20;72.60
8178;DHT22;4130;48.740;9.132;2023-07-13T09:09:23;28.20;71.90
8178;DHT22;4130;48.740;9.132;2023-07-13T09:11:58;27.90;70.90
8178;DHT22;4130;48.740;9.132;2023-07-13T09:14:35;27.60;71.60
8178;DHT22;4130;48.740;9.132;2023-07-13T09:17:05;27.20;72.20
8178;DHT22;4130;48.740;9.132;2023-07-13T09:19:36;26.30;72.20
8178;DHT22;4130;48.740;9.132;2023-07-13T09:22:04;26.00;74.10
8178;DHT22;4130;48.740;9.132;2023-07-13T09:24:38;26.20;72.10
8178;DHT22;4130;48.740;9.132;2023-07-13T09:27:13;26.70;73.60
8178;DHT22;4130;48.740;9.132;2023-07-13T09:29:47;27.20;71.60
8178;DHT22;4130;48.740;9.132;2023-07-13T09:32:18;27.40;71.20
8178;DHT22;4130;48.740;9.132;2023-07-13T09:34:52;27.40;71.40
8178;DHT22;4130;48.740;9.132;2023-07-13T09:37:21;28.10;71.10
8178;DHT22;4130;48.740;9.132;2023-07-13T09:39:49;28.40;71.30
8178;DHT22;4130;48.740;9.132;2023-07-13T09:42:18;28.90;70.00
8178;DHT22;4130;48.740;9.132;2023-07-13T09:44:53;29.60;69.40
8178;DHT22;4130;48.740;9.132;2023-07-13T09:47:22;29.70;69.30
8178;DHT22;4130;48.740;9.132;2023-07-13T09:49:55;29.60;67.30
8178;DHT22;4130;48.740;9.132;2023-07-13T09:52:24;29.60;69.30
8178;DHT22;4130;48.740;9.132;2023-07-13T09:54:54;29.70;67.80
8178;DHT22;4130;48.740;9.132;2023-07-13T09:57:25;29.50;67.20
8178;DHT22;4130;48.740;9.132;2023-07-13T09:59:54;28.90;67.20
8178;DHT22;4130;48.740;9.132;2023-07-13T10:02:29;28.50;67.90
8178;DHT22;4130;48.740;9.132;2023-07-13T10:05:02;28.10;67.60
8178;DHT22;4130;48.740;9.132;2023-07-13T10:07:30;27.70;68.70
8178;DHT22;4130;48.740;9.132;2023-07-13T10:09:58;26.80;67.80
8178;DHT22;4130;48.740;9.132;2023-07-13T10:12:26;26.40;69.80
8178;DHT22;4130;48.740;9.132;2023-07-13T10:14:55;26.20;69.20
8178;DHT22;4130;48.740;9.132;2023-07-13T10:17:27;26.20;70.10
8178;DHT22;4130;48.740;9.132;2023-07-13T10:20:01;26.10;70.10
8178;DHT22;4130;48.740;9.132;2023-07-13T10:22:37;26.40;70.70
8178;DHT22;4130;48.740;9.132;2023-07-13T10:25:14;26.70;69.40
8178;DHT22;4130;48.740;9.132;2023-07-13T10:27:43;26.60;70.30
8178;DHT22;4130;48.740;9.132;2023-07-13T10:30:14;26.60;69.20
8178;DHT22;4130;48.740;9.132;2023-07-13T10:32:43;26.50;71.10
8178;DHT22;4130;48.740;9.132;2023-07-13T10:35:14;26.60;71.70
8178;DHT22;4130;48.740;9.132;2023-07-13T10:37:47;26.30;70.40
8178;DHT22;4130;48.740;9.132;2023-07-13T10:40:18;26.40;72.10
8178;DHT22;4130;48.740;9.132;2023-07-13T10:42:50;26.40;70.10
8178;DHT22;4130;48.740;9.132;2023-07-13T10:45:20;26.50;71.30
8178;DHT22;4130;48.740;9.132;2023-07-13T10:47:47;26.50;69.50
8178;DHT22;4130;48.740;9.132;2023-07-13T10:50:19;26.20;70.00
8178;DHT22;4130;48.740;9.132;2023-07-13T10:52:48;25.60;71.40
8178;DHT22;4130;48.740;9.132;2023-07-13T10:55:32;25.30;71.20
8178;DHT22;4130;48.740;9.132;2023-07-13T10:58:00;25.30;72.60
8178;DHT22;4130;48.740;9.132;2023-07-13T11:00:31;25.50;73.00
8178;DHT22;4130;48.740;9.132;2023-07-13T11:03:00;26.20;72.00
8178;DHT22;4130;48.740;9.132;2023-07-13T11:05:32;26.70;72.60
8178;DHT22;4130;48.740;9.132;2023-07-13T11:08:13;27.40;70.60
8178;DHT22;4130;48.740;9.132;2023-07-13T11:10:53;27.60;68.80
8178;DHT22;4130;48.740;9.132;2023-07-13T11:13:35;27.90;70.40
8178;DHT22;4130;48.740;9.132;2023-07-13T11:16:13;28.70;68.10
8178;DHT22;4130;48.740;9.132;2023-07-13T11:18:40;29.20;68.40
8178;DHT22;4130;48.740;9.132;2023-07-13T11:21:16;29.70;66.50
8178;DHT22;4130;48.740;9.132;2023-07-13T11:23:45;29.30;64.60
8178;DHT22;4130;48.740;9.132;2023-07-13T11:26:41;29.20;66.70
8178;DHT22;4130;48.740;9.132;2023-07-13T11:29:12;29.50;66.80
8178;DHT22;4130;48.740;9.132;2023-07-13T11:31:52;29.50;66.90
8178;DHT22;4130;48.740;9.132;2023-07-13T11:34:25;29.50;65.90
8178;DHT22;4130;48.740;9.132;2023-07-13T11:36:56;29.20;66.00
8178;DHT22;4130;48.740;9.132;2023-07-13T11:39:29;28.70;66.30
8178;DHT22;4130;48.740;9.132;2023-07-13T11:42:00;28.20;66.90
8178;DHT22;4130;48.740;9.132;2023-07-13T11:44:30;28.10;67.40
8178;DHT22;4130;48.740;9.132;2023-07-13T11:46:59;27.70;67.90
8178;DHT22;4130;48.740;9.132;2023-07-13T11:49:29;27.40;66.60
8178;DHT22;4130;48.740;9.132;2023-07-13T11:51:59;27.60;67.10
8178;DHT22;4130;48.740;9.132;2023-07-13T11:54:30;27.90;68.80
8178;DHT22;4130;48.740;9.132;2023-07-13T11:56:59;28.50;67.00
8178;DHT22;4130;48.740;9.132;2023-07-13T11:59:29;28.90;65.80
8178;DHT22;4130;48.740;9.132;2023-07-13T12:01:58;28.90;66.90
8178;DHT22;4130;48.740;9.132;2023-07-13T12:04:26;29.20;67.20
8178;DHT22;4130;48.740;9.132;2023-07-13T12:06:58;28.90;66.90
8178;DHT22;4130;48.740;9.132;2023-07-13T12:09:29;28.40;67.30
8178;DHT22;4130;48.740;9.132;2023-07-13T12:11:57;27.90;66.30
8178;DHT22;4130;48.740;9.132;2023-07-13T12:14:24;27.90;67.10
8178;DHT22;4130;48.740;9.132;2023-07-13T12:16:52;28.20;66.80
8178;DHT22;4130;48.740;9.132;2023-07-13T12:19:21;27.80;65.70
8178;DHT22;4130;48.740;9.132;2023-07-13T12:21:49;27.70;65.90
8178;DHT22;4130;48.740;9.132;2023-07-13T12:24:20;28.30;66.10
8178;DHT22;4130;48.740;9.132;2023-07-13T12:26:51;29.20;66.10
8178;DHT22;4130;48.740;9.132;2023-07-13T12:29:18;30.10;65.90
8178;DHT22;4130;48.740;9.132;2023-07-13T12:31:47;30.00;63.70
8178;DHT22;4130;48.740;9.132;2023-07-13T12:34:15;29.60;65.00
8178;DHT22;4130;48.740;9.132;2023-07-13T12:36:47;28.90;65.00
8178;DHT22;4130;48.740;9.132;2023-07-13T12:39:18;28.50;64.80
8178;DHT22;4130;48.740;9.132;2023-07-13T12:41:47;28.40;65.50
8178;DHT22;4130;48.740;9.132;2023-07-13T12:44:16;28.10;64.40
8178;DHT22;4130;48.740;9.132;2023-07-13T12:46:55;27.70;65.10
8178;DHT22;4130;48.740;9.132;2023-07-13T12:49:25;27.20;65.60
8178;DHT22;4130;48.740;9.132;2023-07-13T12:51:56;27.20;66.80
8178;DHT22;4130;48.740;9.132;2023-07-13T12:54:26;27.90;67.60
8178;DHT22;4130;48.740;9.132;2023-07-13T12:56:54;28.30;65.80
8178;DHT22;4130;48.740;9.132;2023-07-13T12:59:23;29.00;65.40
8178;DHT22;4130;48.740;9.132;2023-07-13T13:01:53;29.40;64.50
8178;DHT22;4130;48.740;9.132;2023-07-13T13:04:20;29.40;64.20
8178;DHT22;4130;48.740;9.132;2023-07-13T13:06:48;29.60;64.10
8178;DHT22;4130;48.740;9.132;2023-07-13T13:09:16;29.70;63.90
8178;DHT22;4130;48.740;9.132;2023-07-13T13:11:45;29.70;64.90
8178;DHT22;4130;48.740;9.132;2023-07-13T13:14:12;29.70;63.90
8178;DHT22;4130;48.740;9.132;2023-07-13T13:16:46;29.60;63.60
8178;DHT22;4130;48.740;9.132;2023-07-13T13:19:16;29.30;64.00
8178;DHT22;4130;48.740;9.132;2023-07-13T13:21:44;28.60;63.30
8178;DHT22;4130;48.740;9.132;2023-07-13T13:24:12;28.30;64.30
8178;DHT22;4130;48.740;9.132;2023-07-13T13:26:40;27.90;65.00
8178;DHT22;4130;48.740;9.132;2023-07-13T13:29:13;27.60;65.90
8178;DHT22;4130;48.740;9.132;2023-07-13T13:31:40;27.30;65.30
8178;DHT22;4130;48.740;9.132;2023-07-13T13:34:10;27.00;65.50
8178;DHT22;4130;48.740;9.132;2023-07-13T13:36:37;27.00;66.20
8178;DHT22;4130;48.740;9.132;2023-07-13T13:39:20;26.90;64.40
8178;DHT22;4130;48.740;9.132;2023-07-13T13:41:49;26.60;65.00
8178;DHT22;4130;48.740;9.132;2023-07-13T13:44:18;26.50;68.00
8178;DHT22;4130;48.740;9.132;2023-07-13T13:46:46;26.40;67.30
8178;DHT22;4130;48.740;9.132;2023-07-13T13:49:15;26.40;67.80
8178;DHT22;4130;48.740;9.132;2023-07-13T13:51:43;26.40;67.00
8178;DHT22;4130;48.740;9.132;2023-07-13T13:54:12;26.40;68.40
8178;DHT22;4130;48.740;9.132;2023-07-13T13:56:40;26.60;65.60
8178;DHT22;4130;48.740;9.132;2023-07-13T13:59:07;26.60;66.40
8178;DHT22;4130;48.740;9.132;2023-07-13T14:01:36;26.60;66.30
8178;DHT22;4130;48.740;9.132;2023-07-13T14:04:03;26.50;67.20
8178;DHT22;4130;48.740;9.132;2023-07-13T14:06:31;26.20;65.70
8178;DHT22;4130;48.740;9.132;2023-07-13T14:09:00;25.90;64.80
8178;DHT22;4130;48.740;9.132;2023-07-13T14:11:27;25.80;66.50
8178;DHT22;4130;48.740;9.132;2023-07-13T14:13:57;25.80;67.40
8178;DHT22;4130;48.740;9.132;2023-07-13T14:16:27;25.80;66.60
8178;DHT22;4130;48.740;9.132;2023-07-13T14:18:56;26.00;67.60
8178;DHT22;4130;48.740;9.132;2023-07-13T14:21:26;26.20;67.00
8178;DHT22;4130;48.740;9.132;2023-07-13T14:23:53;26.20;66.60
8178;DHT22;4130;48.740;9.132;2023-07-13T14:26:22;26.00;66.80
8178;DHT22;4130;48.740;9.132;2023-07-13T14:28:51;26.20;67.50
8178;DHT22;4130;48.740;9.132;2023-07-13T14:31:19;26.40;67.30
8178;DHT22;4130;48.740;9.132;2023-07-13T14:33:46;26.50;66.20
8178;DHT22;4130;48.740;9.132;2023-07-13T14:36:23;26.50;66.90
8178;DHT22;4130;48.740;9.132;2023-07-13T14:38:52;26.60;67.10
8178;DHT22;4130;48.740;9.132;2023-07-13T14:41:19;26.60;66.50
8178;DHT22;4130;48.740;9.132;2023-07-13T14:43:46;26.80;66.70
8178;DHT22;4130;48.740;9.132;2023-07-13T14:46:21;27.00;67.50
8178;DHT22;4130;48.740;9.132;2023-07-13T14:48:51;26.90;65.50
8178;DHT22;4130;48.740;9.132;2023-07-13T14:51:19;26.50;66.10
8178;DHT22;4130;48.740;9.132;2023-07-13T14:53:45;26.40;67.70
8178;DHT22;4130;48.740;9.132;2023-07-13T14:56:12;26.20;66.20
8178;DHT22;4130;48.740;9.132;2023-07-13T14:58:40;26.00;67.40
8178;DHT22;4130;48.740;9.132;2023-07-13T15:01:13;25.80;67.30
8178;DHT22;4130;48.740;9.132;2023-07-13T15:03:44;25.60;68.10
8178;DHT22;4130;48.740;9.132;2023-07-13T15:06:12;25.80;67.70
8178;DHT22;4130;48.740;9.132;2023-07-13T15:08:40;25.80;67.80
8178;DHT22;4130;48.740;9.132;2023-07-13T15:11:08;26.10;67.50
8178;DHT22;4130;48.740;9.132;2023-07-13T15:13:37;26.10;67.10
8178;DHT22;4130;48.740;9.132;2023-07-13T15:16:10;26.20;67.20
8178;DHT22;4130;48.740;9.132;2023-07-13T15:18:40;26.10;66.20
8178;DHT22;4130;48.740;9.132;2023-07-13T15:21:09;26.00;66.60
8178;DHT22;4130;48.740;9.132;2023-07-13T15:23:40;26.00;67.70
8178;DHT22;4130;48.740;9.132;2023-07-13T15:26:11;25.90;66.70
8178;DHT22;4130;48.740;9.132;2023-07-13T15:28:38;25.90;67.20
8178;DHT22;4130;48.740;9.132;2023-07-13T15:31:18;25.80;68.20
8178;DHT22;4130;48.740;9.132;2023-07-13T15:33:45;25.80;68.20
8178;DHT22;4130;48.740;9.132;2023-07-13T15:36:13;25.70;67.60
8178;DHT22;4130;48.740;9.132;2023-07-13T15:38:42;25.70;67.80
8178;DHT22;4130;48.740;9.132;2023-07-13T15:41:17;25.80;67.50
8178;DHT22;4130;48.740;9.132;2023-07-13T15:43:44;25.60;67.40
8178;DHT22;4130;48.740;9.132;2023-07-13T15:46:11;25.70;67.40
8178;DHT22;4130;48.740;9.132;2023-07-13T15:48:37;25.60;66.90
8178;DHT22;4130;48.740;9.132;2023-07-13T15:51:08;25.70;67.70
8178;DHT22;4130;48.740;9.132;2023-07-13T15:53:38;25.70;67.80
8178;DHT22;4130;48.740;9.132;2023-07-13T15:56:17;25.60;67.30
8178;DHT22;4130;48.740;9.132;2023-07-13T15:58:45;25.80;67.50
8178;DHT22;4130;48.740;9.132;2023-07-13T16:01:12;25.70;66.20
8178;DHT22;4130;48.740;9.132;2023-07-13T16:03:40;25.80;66.90
8178;DHT22;4130;48.740;9.132;2023-07-13T16:06:15;25.90;67.60
8178;DHT22;4130;48.740;9.132;2023-07-13T16:08:43;25.90;66.50
8178;DHT22;4130;48.740;9.132;2023-07-13T16:11:16;26.00;65.50
8178;DHT22;4130;48.740;9.132;2023-07-13T16:13:44;25.90;66.70